< < Back
Terminal Aerodrome Forecast


Current Version              Previous Versions:   1  2  3  4  5  6  7  8  9  

Terminal Aerodrome Forecast

800
FTUS44 KBMX 272324
TAFTCL
TAF
KTCL 272324Z 2800/2824 03007KT P6SM OVC250
     FM281400 06008KT P6SM OVC120
     FM281800 05010KT P6SM -RA OVC080=

Latest METAR

852
SAUS70 KWBC 281158
MTRTCL
METAR KTCL 281153Z 04006KT 10SM CLR 12/07 A2989 RMK AO2 SLP120 T01170067
10139 20094 53007


USA.gov is the U.S. government's official web portal to all federal, state and local government web resources and services.